createdAt,value
2017-12-23T00:02:12.107Z,102986.27
2017-12-23T00:04:44.834Z,102984.83
2017-12-23T00:07:13.278Z,102981.77
2017-12-23T00:09:41.529Z,102988.36
2017-12-23T00:12:11.686Z,102984.45
2017-12-23T00:14:46.127Z,102977.66
2017-12-23T00:17:17.923Z,102977.32
2017-12-23T00:19:45.593Z,102975.05
2017-12-23T00:22:16.392Z,102965.69
2017-12-23T00:24:44.767Z,102973.17
2017-12-23T00:27:13.220Z,102967.92
2017-12-23T00:29:42.371Z,102969.05
2017-12-23T00:32:12.926Z,102967.72
2017-12-23T00:34:41.487Z,102963.90
2017-12-23T00:37:10.375Z,102967.92
2017-12-23T00:39:41.639Z,102973.80
2017-12-23T00:42:10.856Z,102970.48
2017-12-23T00:44:39.085Z,102963.38
2017-12-23T00:47:09.193Z,102961.12
2017-12-23T00:49:39.063Z,102962.98
2017-12-23T00:52:08.286Z,102958.00
2017-12-23T00:54:36.833Z,102962.55
2017-12-23T00:57:05.531Z,102955.86
2017-12-23T00:59:33.538Z,102951.52
2017-12-23T01:02:01.703Z,102944.23
2017-12-23T01:04:31.558Z,102944.13
2017-12-23T01:06:59.167Z,102931.77
2017-12-23T01:09:28.575Z,102932.58
2017-12-23T01:11:56.329Z,102935.08
2017-12-23T01:14:24.731Z,102943.27
2017-12-23T01:16:53.076Z,102944.61
2017-12-23T01:19:21.730Z,102936.41
2017-12-23T01:21:50.430Z,102933.53
2017-12-23T01:24:19.604Z,102934.45
2017-12-23T01:26:49.729Z,102935.70
2017-12-23T01:29:20.390Z,102935.91
2017-12-23T01:31:50.974Z,102936.22
2017-12-23T01:34:20.938Z,102927.55
2017-12-23T01:36:50.563Z,102929.73
2017-12-23T01:39:19.564Z,102933.22
2017-12-23T01:41:47.182Z,102927.33
2017-12-23T01:44:16.478Z,102918.80
2017-12-23T01:46:47.682Z,102927.31
2017-12-23T01:49:15.703Z,102923.01
2017-12-23T01:51:43.313Z,102916.31
2017-12-23T01:54:15.595Z,102916.52
2017-12-23T01:56:44.385Z,102920.23
2017-12-23T01:59:13.262Z,102920.53
2017-12-23T02:01:42.011Z,102919.80
2017-12-23T02:04:13.167Z,102917.32
2017-12-23T02:06:41.978Z,102910.21
2017-12-23T02:09:09.753Z,102903.13
2017-12-23T02:11:38.564Z,102896.02
2017-12-23T02:14:11.758Z,102891.36
2017-12-23T02:16:40.462Z,102894.45
2017-12-23T02:19:10.881Z,102898.80
2017-12-23T02:21:41.848Z,102897.95
2017-12-23T02:24:11.222Z,102888.30
2017-12-23T02:26:39.429Z,102886.98
2017-12-23T02:29:08.890Z,102885.83
2017-12-23T02:31:37.322Z,102877.39
2017-12-23T02:34:05.583Z,102876.64
2017-12-23T02:36:34.361Z,102881.28
2017-12-23T02:39:02.843Z,102884.27
2017-12-23T02:41:32.199Z,102871.92
2017-12-23T02:44:00.739Z,102867.19
2017-12-23T02:46:30.106Z,102865.73
2017-12-23T02:48:57.990Z,102861.41
2017-12-23T02:51:29.869Z,102850.70
2017-12-23T02:54:01.231Z,102851.33
2017-12-23T02:56:29.098Z,102853.59
2017-12-23T02:58:58.467Z,102860.30
2017-12-23T03:01:30.010Z,102857.09
2017-12-23T03:03:58.831Z,102849.17
2017-12-23T03:06:27.614Z,102853.72
2017-12-23T03:08:56.545Z,102847.22
2017-12-23T03:11:25.746Z,102839.18
2017-12-23T03:13:53.410Z,102831.89
2017-12-23T03:16:23.334Z,102835.56
2017-12-23T03:18:52.858Z,102838.16
2017-12-23T03:21:22.087Z,102832.09
2017-12-23T03:23:51.589Z,102836.70
2017-12-23T03:26:20.401Z,102835.35
2017-12-23T03:28:54.006Z,102841.23
2017-12-23T03:31:26.125Z,102837.86
2017-12-23T03:33:53.780Z,102837.75
2017-12-23T03:36:21.649Z,102839.80
2017-12-23T03:38:49.283Z,102838.88
2017-12-23T03:41:17.334Z,102835.68
2017-12-23T03:43:46.203Z,102841.67
2017-12-23T03:46:16.987Z,102838.06
2017-12-23T03:48:46.316Z,102829.93
2017-12-23T03:51:16.629Z,102832.11
2017-12-23T03:53:47.110Z,102827.36
2017-12-23T03:56:15.709Z,102831.47
2017-12-23T03:58:45.267Z,102833.83
2017-12-23T04:01:15.146Z,102836.61
2017-12-23T04:03:46.467Z,102840.73
2017-12-23T04:06:16.574Z,102853.72
2017-12-23T04:08:45.188Z,102848.97
2017-12-23T04:11:15.324Z,102844.46
2017-12-23T04:13:45.674Z,102846.71
2017-12-23T04:16:15.033Z,102851.22
2017-12-23T04:18:45.946Z,102857.84
2017-12-23T04:21:15.297Z,102857.62
2017-12-23T04:23:43.262Z,102853.50
2017-12-23T04:26:11.901Z,102850.09
2017-12-23T04:28:42.004Z,102853.49
2017-12-23T04:31:11.312Z,102854.73
2017-12-23T04:33:40.597Z,102861.42
2017-12-23T04:36:11.344Z,102865.22
2017-12-23T04:38:41.413Z,102862.55
2017-12-23T04:41:13.250Z,102861.20
2017-12-23T04:43:42.038Z,102858.11
2017-12-23T04:46:10.427Z,102863.67
2017-12-23T04:48:39.233Z,102858.43
2017-12-23T04:51:06.864Z,102855.64
2017-12-23T04:53:38.312Z,102852.27
2017-12-23T04:56:05.903Z,102851.74
2017-12-23T04:58:37.195Z,102856.48
2017-12-23T05:01:07.190Z,102855.64
2017-12-23T05:03:53.942Z,102851.31
2017-12-23T05:06:22.801Z,102852.38
2017-12-23T05:08:51.598Z,102849.59
2017-12-23T05:11:26.089Z,102854.84
2017-12-23T05:13:54.522Z,102852.05
2017-12-23T05:16:23.242Z,102850.09
2017-12-23T05:18:53.653Z,102843.02
2017-12-23T05:21:26.458Z,102857.82
2017-12-23T05:23:54.129Z,102854.61
2017-12-23T05:26:22.306Z,102853.91
2017-12-23T05:28:51.476Z,102850.48
2017-12-23T05:31:19.136Z,102848.41
2017-12-23T05:33:46.733Z,102842.14
2017-12-23T05:36:17.158Z,102843.30
2017-12-23T05:38:48.472Z,102840.42
2017-12-23T05:41:19.082Z,102843.70
2017-12-23T05:43:47.352Z,102841.97
2017-12-23T05:46:21.294Z,102844.39
2017-12-23T05:48:48.910Z,102839.47
2017-12-23T05:51:17.833Z,102836.64
2017-12-23T05:53:46.086Z,102833.05
2017-12-23T05:56:16.956Z,102832.64
2017-12-23T05:58:45.454Z,102833.87
2017-12-23T06:01:15.665Z,102831.30
2017-12-23T06:03:45.964Z,102830.24
2017-12-23T06:06:18.804Z,102826.87
2017-12-23T06:08:46.871Z,102818.41
2017-12-23T06:11:17.641Z,102820.07
2017-12-23T06:13:47.760Z,102810.17
2017-12-23T06:16:15.799Z,102812.77
2017-12-23T06:18:45.707Z,102805.97
2017-12-23T06:21:14.423Z,102807.41
2017-12-23T06:23:42.015Z,102807.41
2017-12-23T06:26:11.022Z,102807.59
2017-12-23T06:28:43.430Z,102810.27
2017-12-23T06:31:12.279Z,102804.42
2017-12-23T06:33:40.658Z,102808.00
2017-12-23T06:36:12.066Z,102810.25
2017-12-23T06:38:39.614Z,102811.51
2017-12-23T06:41:08.325Z,102810.66
2017-12-23T06:43:36.761Z,102803.17
2017-12-23T06:46:08.317Z,102804.61
2017-12-23T06:48:39.851Z,102808.30
2017-12-23T06:51:08.502Z,102802.64
2017-12-23T06:53:37.304Z,102807.38
2017-12-23T06:56:07.038Z,102801.52
2017-12-23T06:58:37.186Z,102794.83
2017-12-23T07:01:05.447Z,102796.89
2017-12-23T07:03:34.867Z,102796.56
2017-12-23T07:06:03.033Z,102786.88
2017-12-23T07:08:32.702Z,102793.36
2017-12-23T07:11:02.486Z,102783.61
2017-12-23T07:13:30.079Z,102781.44
2017-12-23T07:15:58.462Z,102772.40
2017-12-23T07:18:27.826Z,102774.77
2017-12-23T07:20:56.479Z,102773.64
2017-12-23T07:25:59.612Z,102772.20
2017-12-23T07:28:31.077Z,102782.69
2017-12-23T07:31:00.419Z,102790.52
2017-12-23T07:33:31.442Z,102792.80
2017-12-23T07:36:00.028Z,102790.53
2017-12-23T07:38:30.497Z,102803.30
2017-12-23T07:40:58.931Z,102798.77
2017-12-23T07:43:27.546Z,102805.15
2017-12-23T07:45:56.283Z,102799.48
2017-12-23T07:48:26.460Z,102794.13
2017-12-23T07:50:54.828Z,102797.97
2017-12-23T07:53:26.186Z,102799.20
2017-12-23T07:55:54.070Z,102799.09
2017-12-23T07:58:21.746Z,102797.13
2017-12-23T08:00:56.781Z,102799.59
2017-12-23T08:03:24.424Z,102793.44
2017-12-23T08:05:52.734Z,102799.11
2017-12-23T08:08:21.720Z,102800.72
2017-12-23T08:10:50.488Z,102802.38
2017-12-23T08:13:19.855Z,102801.48
2017-12-23T08:15:49.591Z,102798.06
2017-12-23T08:18:18.990Z,102792.33
2017-12-23T08:20:50.433Z,102793.45
2017-12-23T08:23:18.059Z,102791.09
2017-12-23T08:25:46.577Z,102792.33
2017-12-23T08:28:15.284Z,102794.26
2017-12-23T08:30:45.188Z,102794.36
2017-12-23T08:33:12.807Z,102793.66
2017-12-23T08:35:47.673Z,102797.56
2017-12-23T08:38:16.523Z,102802.51
2017-12-23T08:40:44.132Z,102806.83
2017-12-23T08:43:11.781Z,102811.26
2017-12-23T08:45:40.097Z,102814.11
2017-12-23T08:48:09.599Z,102814.44
2017-12-23T08:50:37.201Z,102814.13
2017-12-23T08:53:08.328Z,102814.64
2017-12-23T08:55:39.823Z,102815.98
2017-12-23T08:58:08.807Z,102812.28
2017-12-23T09:00:37.924Z,102816.50
2017-12-23T09:03:06.435Z,102816.61
2017-12-23T09:05:34.865Z,102818.86
2017-12-23T09:08:03.274Z,102822.25
2017-12-23T09:10:37.281Z,102820.09
2017-12-23T09:13:06.982Z,102819.45
2017-12-23T09:15:37.292Z,102824.91
2017-12-23T09:18:05.924Z,102824.91
2017-12-23T09:20:34.314Z,102817.42
2017-12-23T09:23:02.135Z,102824.11
2017-12-23T09:25:31.732Z,102814.22
2017-12-23T09:28:01.324Z,102812.88
2017-12-23T09:30:33.400Z,102817.10
2017-12-23T09:33:01.955Z,102817.64
2017-12-23T09:35:31.769Z,102813.09
2017-12-23T09:38:00.402Z,102812.49
2017-12-23T09:40:29.095Z,102810.20
2017-12-23T09:42:59.749Z,102810.51
2017-12-23T09:45:29.084Z,102808.47
2017-12-23T09:47:57.368Z,102812.77
2017-12-23T09:50:26.487Z,102808.98
2017-12-23T09:52:54.115Z,102815.27
2017-12-23T09:55:23.339Z,102799.40
2017-12-23T09:57:53.392Z,102804.16
2017-12-23T10:00:21.859Z,102802.08
2017-12-23T10:02:52.419Z,102798.17
2017-12-23T10:05:22.573Z,102796.24
2017-12-23T10:07:50.866Z,102800.25
2017-12-23T10:10:18.494Z,102793.95
2017-12-23T10:12:46.524Z,102798.70
2017-12-23T10:15:14.114Z,102797.27
2017-12-23T10:17:47.661Z,102792.94
2017-12-23T10:20:15.300Z,102782.23
2017-12-23T10:22:44.799Z,102792.17
2017-12-23T10:25:15.548Z,102786.82
2017-12-23T10:27:45.351Z,102791.15
2017-12-23T10:30:16.188Z,102775.59
2017-12-23T10:32:50.747Z,102777.47
2017-12-23T10:35:19.035Z,102777.05
2017-12-23T10:37:48.860Z,102776.14
2017-12-23T10:40:18.934Z,102771.17
2017-12-23T10:42:46.881Z,102771.39
2017-12-23T10:45:15.248Z,102771.81
2017-12-23T10:47:46.310Z,102768.70
2017-12-23T10:50:15.347Z,102765.12
2017-12-23T10:52:52.950Z,102767.16
2017-12-23T10:55:23.688Z,102769.73
2017-12-23T10:57:54.102Z,102760.80
2017-12-23T11:00:22.358Z,102762.77
2017-12-23T11:02:51.715Z,102753.30
2017-12-23T11:05:21.274Z,102746.91
2017-12-23T11:07:50.310Z,102741.38
2017-12-23T11:10:18.812Z,102735.82
2017-12-23T11:12:46.789Z,102737.76
2017-12-23T11:15:15.228Z,102736.10
2017-12-23T11:17:46.055Z,102729.84
2017-12-23T11:20:14.987Z,102736.11
2017-12-23T11:22:43.462Z,102727.27
2017-12-23T11:25:12.004Z,102724.28
2017-12-23T11:27:40.573Z,102723.15
2017-12-23T11:30:12.363Z,102720.79
2017-12-23T11:32:40.837Z,102719.24
2017-12-23T11:35:11.060Z,102712.66
2017-12-23T11:37:43.384Z,102708.97
2017-12-23T11:40:11.009Z,102707.31
2017-12-23T11:42:41.516Z,102705.97
2017-12-23T11:45:09.975Z,102712.13
2017-12-23T11:47:38.883Z,102709.38
2017-12-23T11:50:10.094Z,102706.88
2017-12-23T11:52:40.395Z,102720.45
2017-12-23T11:55:08.000Z,102709.37
2017-12-23T11:57:36.378Z,102699.59
2017-12-23T12:00:08.578Z,102703.91
2017-12-23T12:02:40.410Z,102700.50
2017-12-23T12:05:14.526Z,102703.06
2017-12-23T12:07:42.915Z,102701.63
2017-12-23T12:10:13.270Z,102684.52
2017-12-23T12:12:40.876Z,102689.59
2017-12-23T12:15:09.340Z,102687.30
2017-12-23T12:17:41.115Z,102684.13
2017-12-23T12:20:10.797Z,102682.80
2017-12-23T12:22:42.095Z,102693.11
2017-12-23T12:25:09.722Z,102686.31
2017-12-23T12:27:40.382Z,102681.67
2017-12-23T12:30:21.137Z,102679.94
2017-12-23T12:32:55.903Z,102676.84
2017-12-23T12:35:24.113Z,102672.21
2017-12-23T12:37:52.362Z,102669.42
2017-12-23T12:40:22.045Z,102668.61
2017-12-23T12:42:50.868Z,102666.40
2017-12-23T12:45:21.312Z,102655.02
2017-12-23T12:47:50.246Z,102664.07
2017-12-23T12:50:17.905Z,102653.05
2017-12-23T12:52:47.630Z,102658.41
2017-12-23T12:55:16.613Z,102662.03
2017-12-23T12:57:57.194Z,102664.92
2017-12-23T13:00:27.464Z,102657.39
2017-12-23T13:02:57.428Z,102661.61
2017-12-23T13:05:28.986Z,102656.69
2017-12-23T13:07:58.348Z,102655.84
2017-12-23T13:10:27.885Z,102648.23
2017-12-23T13:12:56.344Z,102653.91
2017-12-23T13:15:27.761Z,102652.56
2017-12-23T13:17:57.481Z,102651.75
2017-12-23T13:20:25.147Z,102655.95
2017-12-23T13:22:53.488Z,102655.03
2017-12-23T13:25:22.043Z,102658.44
2017-12-23T13:27:51.171Z,102656.27
2017-12-23T13:30:21.626Z,102638.98
2017-12-23T13:32:51.974Z,102639.08
2017-12-23T13:35:20.883Z,102641.66
2017-12-23T13:37:52.158Z,102637.95
2017-12-23T13:40:21.250Z,102639.57
2017-12-23T13:42:52.820Z,102646.69
2017-12-23T13:45:24.519Z,102640.73
2017-12-23T13:47:52.836Z,102632.28
2017-12-23T13:50:20.480Z,102636.30
2017-12-23T13:52:48.956Z,102635.77
2017-12-23T13:55:20.388Z,102627.95
2017-12-23T13:57:48.440Z,102628.17
2017-12-23T14:00:17.234Z,102622.61
2017-12-23T14:02:45.497Z,102624.06
2017-12-23T14:05:14.475Z,102628.38
2017-12-23T14:07:42.818Z,102629.52
2017-12-23T14:10:10.788Z,102629.72
2017-12-23T14:12:40.493Z,102621.48
2017-12-23T14:15:11.337Z,102613.14
2017-12-23T14:17:40.650Z,102623.95
2017-12-23T14:20:10.175Z,102627.75
2017-12-23T14:22:41.360Z,102619.02
2017-12-23T14:25:13.192Z,102627.36
2017-12-23T14:27:41.462Z,102628.48
2017-12-23T14:30:09.808Z,102628.91
2017-12-23T14:32:37.494Z,102629.09
2017-12-23T14:35:06.938Z,102627.64
2017-12-23T14:37:36.255Z,102627.95
2017-12-23T14:40:05.940Z,102623.34
2017-12-23T14:42:34.277Z,102620.67
2017-12-23T14:47:36.118Z,102620.14
2017-12-23T14:50:06.427Z,102617.89
2017-12-23T14:52:34.528Z,102623.72
2017-12-23T14:55:05.265Z,102620.23
2017-12-23T14:57:38.391Z,102608.91
2017-12-23T15:00:07.711Z,102607.88
2017-12-23T15:02:36.996Z,102609.54
2017-12-23T15:05:06.967Z,102601.83
2017-12-23T15:07:35.682Z,102607.17
2017-12-23T15:10:05.869Z,102604.39
2017-12-23T15:12:36.786Z,102594.39
2017-12-23T15:15:06.109Z,102599.25
2017-12-23T15:17:33.756Z,102603.87
2017-12-23T15:20:02.139Z,102597.39
2017-12-23T15:22:31.319Z,102598.41
2017-12-23T15:24:59.834Z,102594.08
2017-12-23T15:27:31.225Z,102588.93
2017-12-23T15:30:01.690Z,102595.02
2017-12-23T15:32:30.409Z,102595.02
2017-12-23T15:34:58.114Z,102582.98
2017-12-23T15:37:27.518Z,102585.66
2017-12-23T15:39:56.453Z,102582.34
2017-12-23T15:42:26.807Z,102583.68
2017-12-23T15:44:55.446Z,102579.56
2017-12-23T15:47:24.169Z,102578.00
2017-12-23T15:49:53.620Z,102570.61
2017-12-23T15:52:22.886Z,102578.95
2017-12-23T15:54:54.475Z,102574.72
2017-12-23T15:57:24.905Z,102576.86
2017-12-23T15:59:52.540Z,102584.19
2017-12-23T16:02:21.876Z,102577.19
2017-12-23T16:04:51.583Z,102569.75
2017-12-23T16:07:20.037Z,102569.04
2017-12-23T16:09:51.021Z,102561.72
2017-12-23T16:12:19.501Z,102566.15
2017-12-23T16:14:48.727Z,102565.45
2017-12-23T16:17:18.868Z,102563.48
2017-12-23T16:19:46.502Z,102556.69
2017-12-23T16:22:14.756Z,102564.72
2017-12-23T16:24:43.270Z,102562.35
2017-12-23T16:27:15.585Z,102561.93
2017-12-23T16:29:43.910Z,102564.28
2017-12-23T16:32:12.651Z,102561.31
2017-12-23T16:34:41.004Z,102557.19
2017-12-23T16:39:48.121Z,102561.09
2017-12-23T16:42:15.738Z,102559.45
2017-12-23T16:44:46.890Z,102556.02
2017-12-23T16:47:14.504Z,102556.53
2017-12-23T16:49:42.141Z,102559.91
2017-12-23T16:52:15.695Z,102553.86
2017-12-23T16:54:46.878Z,102551.17
2017-12-23T16:57:22.898Z,102548.69
2017-12-23T16:59:51.430Z,102555.99
2017-12-23T17:02:25.678Z,102558.88
2017-12-23T17:04:55.672Z,102556.41
2017-12-23T17:07:28.579Z,102555.16
2017-12-23T17:09:59.555Z,102562.77
2017-12-23T17:12:30.528Z,102559.16
2017-12-23T17:15:03.227Z,102565.33
2017-12-23T17:17:34.160Z,102558.52
2017-12-23T17:20:02.751Z,102551.12
2017-12-23T17:22:34.069Z,102548.23
2017-12-23T17:25:03.635Z,102556.69
2017-12-23T17:27:32.193Z,102547.58
2017-12-23T17:30:14.357Z,102552.55
2017-12-23T17:32:44.379Z,102551.60
2017-12-23T17:35:12.800Z,102546.76
2017-12-23T17:37:41.809Z,102544.89
2017-12-23T17:40:11.253Z,102544.30
2017-12-23T17:42:39.767Z,102545.95
2017-12-23T17:45:11.370Z,102539.38
2017-12-23T17:47:39.698Z,102535.86
2017-12-23T17:50:07.384Z,102537.62
2017-12-23T17:52:38.706Z,102539.97
2017-12-23T17:55:07.964Z,102540.78
2017-12-23T17:57:38.216Z,102528.55
2017-12-23T18:00:06.466Z,102532.67
2017-12-23T18:02:35.706Z,102534.08
2017-12-23T18:05:03.708Z,102537.70
2017-12-23T18:07:31.950Z,102533.68
2017-12-23T18:10:00.146Z,102534.39
2017-12-23T18:12:30.909Z,102537.70
2017-12-23T18:15:01.291Z,102537.96
2017-12-23T18:17:30.234Z,102540.36
2017-12-23T18:19:58.854Z,102539.31
2017-12-23T18:25:01.943Z,102531.69
2017-12-23T18:27:35.273Z,102537.66
2017-12-23T18:30:04.591Z,102527.78
2017-12-23T18:32:32.306Z,102530.03
2017-12-23T18:35:01.215Z,102529.84
2017-12-23T18:37:29.949Z,102529.23
2017-12-23T18:40:01.516Z,102539.22
2017-12-23T18:42:33.019Z,102542.47
2017-12-23T18:45:04.033Z,102536.49
2017-12-23T18:47:31.664Z,102545.06
2017-12-23T18:50:00.234Z,102542.60
2017-12-23T18:52:28.817Z,102539.50
2017-12-23T18:54:57.571Z,102532.59
2017-12-23T18:57:25.876Z,102526.53
2017-12-23T18:59:54.850Z,102527.98
2017-12-23T19:02:25.256Z,102533.92
2017-12-23T19:04:58.646Z,102528.79
2017-12-23T19:07:27.667Z,102521.48
2017-12-23T19:09:57.330Z,102520.86
2017-12-23T19:12:28.171Z,102517.27
2017-12-23T19:14:56.491Z,102511.91
2017-12-23T19:17:26.583Z,102516.41
2017-12-23T19:22:31.664Z,102529.30
2017-12-23T19:24:59.339Z,102527.05
2017-12-23T19:27:29.112Z,102521.48
2017-12-23T19:29:58.325Z,102521.69
2017-12-23T19:32:28.027Z,102522.52
2017-12-23T19:34:56.229Z,102517.75
2017-12-23T19:37:29.430Z,102516.84
2017-12-23T19:39:58.945Z,102512.02
2017-12-23T19:42:29.054Z,102520.55
2017-12-23T19:44:59.963Z,102517.69
2017-12-23T19:47:27.563Z,102508.70
2017-12-23T19:49:57.756Z,102506.02
2017-12-23T19:52:27.639Z,102508.44
2017-12-23T19:54:55.371Z,102498.75
2017-12-23T19:57:22.954Z,102501.63
2017-12-23T19:59:51.569Z,102501.11
2017-12-23T20:02:24.049Z,102500.47
2017-12-23T20:04:52.540Z,102492.13
2017-12-23T20:07:23.224Z,102491.20
2017-12-23T20:09:50.853Z,102485.67
2017-12-23T20:12:19.336Z,102478.34
2017-12-23T20:14:47.822Z,102483.08
2017-12-23T20:17:19.469Z,102483.50
2017-12-23T20:19:47.988Z,102484.52
2017-12-23T20:22:17.223Z,102476.80
2017-12-23T20:24:44.877Z,102483.78
2017-12-23T20:27:17.265Z,102480.38
2017-12-23T20:29:47.418Z,102486.80
2017-12-23T20:32:15.682Z,102486.38
2017-12-23T20:34:43.355Z,102485.23
2017-12-23T20:37:10.982Z,102487.41
2017-12-23T20:39:41.803Z,102487.61
2017-12-23T20:42:10.799Z,102489.27
2017-12-23T20:44:41.705Z,102482.27
2017-12-23T20:47:10.218Z,102477.00
2017-12-23T20:49:38.496Z,102476.48
2017-12-23T20:52:07.037Z,102477.02
2017-12-23T20:54:38.913Z,102477.94
2017-12-23T20:57:07.318Z,102469.80
2017-12-23T20:59:35.858Z,102469.73
2017-12-23T21:02:06.025Z,102461.59
2017-12-23T21:04:34.819Z,102460.25
2017-12-23T21:07:03.703Z,102457.69
2017-12-23T21:09:33.481Z,102447.05
2017-12-23T21:12:04.066Z,102443.48
2017-12-23T21:14:34.385Z,102448.00
2017-12-23T21:17:03.207Z,102447.00
2017-12-23T21:19:31.679Z,102454.90
2017-12-23T21:22:01.418Z,102454.81
2017-12-23T21:24:33.048Z,102455.42
2017-12-23T21:27:03.651Z,102462.77
2017-12-23T21:29:31.286Z,102464.53
2017-12-23T21:32:02.253Z,102458.09
2017-12-23T21:34:31.988Z,102460.05
2017-12-23T21:37:02.627Z,102451.02
2017-12-23T21:39:30.887Z,102452.54
2017-12-23T21:41:59.910Z,102452.73
2017-12-23T21:47:01.249Z,102457.17
2017-12-23T21:49:30.079Z,102460.79
2017-12-23T21:51:58.466Z,102460.87
2017-12-23T21:54:28.099Z,102456.15
2017-12-23T21:56:56.580Z,102462.62
2017-12-23T21:59:29.520Z,102460.64
2017-12-23T22:02:08.163Z,102453.86
2017-12-23T22:04:38.435Z,102463.78
2017-12-23T22:07:08.479Z,102448.44
2017-12-23T22:09:36.911Z,102452.86
2017-12-23T22:12:06.223Z,102446.17
2017-12-23T22:14:34.842Z,102451.53
2017-12-23T22:17:02.482Z,102450.50
2017-12-23T22:19:31.459Z,102454.31
2017-12-23T22:22:03.630Z,102441.77
2017-12-23T22:24:31.980Z,102438.67
2017-12-23T22:27:00.810Z,102435.27
2017-12-23T22:29:30.772Z,102440.82
2017-12-23T22:31:58.495Z,102449.58
2017-12-23T22:34:26.862Z,102447.71
2017-12-23T22:36:57.452Z,102446.34
2017-12-23T22:39:26.946Z,102444.53
2017-12-23T22:44:29.923Z,102435.86
2017-12-23T22:46:58.524Z,102436.08
2017-12-23T22:49:27.060Z,102435.86
2017-12-23T22:51:58.350Z,102426.38
2017-12-23T22:54:27.826Z,102429.65
2017-12-23T22:56:56.390Z,102425.98
2017-12-23T22:59:25.178Z,102421.14
2017-12-23T23:01:53.151Z,102417.95
2017-12-23T23:04:22.988Z,102412.11
2017-12-23T23:06:51.606Z,102422.50
2017-12-23T23:09:21.374Z,102421.74
2017-12-23T23:11:52.592Z,102416.72
2017-12-23T23:14:21.376Z,102419.73
2017-12-23T23:16:51.771Z,102423.33
2017-12-23T23:19:21.455Z,102425.61
2017-12-23T23:21:49.134Z,102417.80
2017-12-23T23:24:17.197Z,102414.70
2017-12-23T23:26:46.785Z,102425.10
2017-12-23T23:29:16.599Z,102416.15
2017-12-23T23:31:46.463Z,102410.38
2017-12-23T23:34:16.632Z,102405.02
2017-12-23T23:36:44.484Z,102410.47
2017-12-23T23:39:14.102Z,102399.87
2017-12-23T23:41:47.411Z,102391.98
2017-12-23T23:44:16.514Z,102390.03
2017-12-23T23:46:46.974Z,102384.72
2017-12-23T23:49:15.766Z,102373.20
2017-12-23T23:51:45.222Z,102369.80
2017-12-23T23:54:12.938Z,102368.48
2017-12-23T23:56:42.274Z,102372.02
2017-12-23T23:59:13.665Z,102386.63
